Time;durP1;ratioP1;P1;durP2;ratioP2;P2;SDS_P1;SDS_P2;PMS_P1;PMS_P2;Temp;Humidity;BMP_temperature;BMP_pressure;BME280_temperature;BME280_humidity;BME280_pressure;Samples;Min_cycle;Max_cycle;Signal;HPM_P1;HPM_P2
2021/05/05 00:00:18;;;;;;;2.05;0.70;;;7.20;85.20;;;;;;2076615;28;20138;-86
2021/05/05 00:01:19;;;;;;;2.65;0.60;;;7.20;85.20;;;;;;2084709;28;20016;-86
2021/05/05 00:02:19;;;;;;;1.98;0.82;;;7.20;85.20;;;;;;2077699;28;20479;-86
2021/05/05 00:03:20;;;;;;;3.05;1.00;;;7.20;85.80;;;;;;2068564;28;20463;-85
2021/05/05 00:04:21;;;;;;;3.78;0.85;;;7.30;85.20;;;;;;2066042;28;20044;-86
2021/05/05 00:05:22;;;;;;;2.92;0.77;;;7.30;85.20;;;;;;2072665;28;20117;-86
2021/05/05 00:06:22;;;;;;;2.10;0.60;;;7.30;85.20;;;;;;2064680;28;20034;-86
2021/05/05 00:07:23;;;;;;;3.40;0.82;;;7.30;85.20;;;;;;2072539;28;20022;-85
2021/05/05 00:08:24;;;;;;;2.72;0.70;;;7.30;85.10;;;;;;2072059;28;20044;-86
2021/05/05 00:09:25;;;;;;;3.72;0.70;;;7.30;85.00;;;;;;2072612;28;20045;-85
2021/05/05 00:10:26;;;;;;;2.97;0.57;;;7.30;85.00;;;;;;2059416;28;20507;-85
2021/05/05 00:11:27;;;;;;;2.53;0.70;;;7.30;84.90;;;;;;2062912;28;20026;-85
2021/05/05 00:12:27;;;;;;;2.10;0.60;;;7.30;84.90;;;;;;2071508;28;20036;-85
2021/05/05 00:13:28;;;;;;;3.92;0.80;;;7.30;84.90;;;;;;2056578;28;20038;-85
2021/05/05 00:14:29;;;;;;;3.13;0.73;;;7.40;84.90;;;;;;2056362;28;20090;-85
2021/05/05 00:15:29;;;;;;;3.08;1.00;;;7.40;84.90;;;;;;2064150;28;20034;-85
2021/05/05 00:16:31;;;;;;;2.65;0.60;;;7.30;84.80;;;;;;2063742;28;20099;-85
2021/05/05 00:17:31;;;;;;;3.05;0.73;;;7.40;84.80;;;;;;2072284;28;20026;-86
2021/05/05 00:18:33;;;;;;;3.53;0.60;;;7.40;84.80;;;;;;2079237;28;20122;-85
2021/05/05 00:19:33;;;;;;;3.58;0.70;;;7.40;84.80;;;;;;2069168;28;20061;-85
2021/05/05 00:20:35;;;;;;;4.35;0.80;;;7.40;85.30;;;;;;2070237;28;20451;-85
2021/05/05 00:21:35;;;;;;;3.67;0.90;;;7.40;84.70;;;;;;2083152;28;20033;-85
2021/05/05 00:22:36;;;;;;;2.92;0.70;;;7.40;84.70;;;;;;2074269;28;20448;-85
2021/05/05 00:23:37;;;;;;;3.63;0.98;;;7.30;84.60;;;;;;2067167;28;20538;-85
2021/05/05 00:24:37;;;;;;;2.05;0.82;;;7.40;84.70;;;;;;2068412;28;20028;-85
2021/05/05 00:25:38;;;;;;;3.75;0.70;;;7.30;84.60;;;;;;2077214;28;20381;-85
2021/05/05 00:26:39;;;;;;;3.47;0.80;;;7.40;84.60;;;;;;2071689;28;20370;-85
2021/05/05 00:27:40;;;;;;;2.78;0.70;;;7.30;84.50;;;;;;2073960;28;20026;-85
2021/05/05 00:28:41;;;;;;;1.60;0.60;;;7.30;84.50;;;;;;2067525;28;20042;-85
2021/05/05 00:29:41;;;;;;;3.42;0.52;;;7.30;84.50;;;;;;2077045;28;20025;-85
2021/05/05 00:30:42;;;;;;;3.25;0.60;;;7.30;84.50;;;;;;2071298;28;20160;-85
2021/05/05 00:31:44;;;;;;;2.35;0.80;;;7.30;84.50;;;;;;2063787;28;20042;-85
2021/05/05 00:32:44;;;;;;;3.25;0.73;;;7.30;84.50;;;;;;2056652;28;20125;-85
2021/05/05 00:33:45;;;;;;;2.33;0.75;;;7.30;84.40;;;;;;2069770;28;20042;-86
2021/05/05 00:34:47;;;;;;;1.02;0.47;;;7.30;84.50;;;;;;2084772;28;20029;-86
2021/05/05 00:35:47;;;;;;;3.90;0.80;;;7.30;84.50;;;;;;2076621;28;20493;-85
2021/05/05 00:36:48;;;;;;;4.65;0.60;;;7.30;84.50;;;;;;2062920;28;20065;-85
2021/05/05 00:37:49;;;;;;;2.30;0.70;;;7.30;84.50;;;;;;2067800;28;20108;-86
2021/05/05 00:38:50;;;;;;;4.50;0.70;;;7.30;84.60;;;;;;2085038;28;20033;-86
2021/05/05 00:39:51;;;;;;;2.70;0.68;;;7.30;84.50;;;;;;2081819;28;20029;-85
2021/05/05 00:40:52;;;;;;;5.07;0.88;;;7.30;84.50;;;;;;2070312;28;20392;-85
2021/05/05 00:41:52;;;;;;;4.03;0.80;;;7.30;84.40;;;;;;2072210;28;20026;-85
2021/05/05 00:42:53;;;;;;;3.78;0.73;;;7.30;84.40;;;;;;2064209;28;20116;-85
2021/05/05 00:43:54;;;;;;;3.47;0.68;;;7.30;84.40;;;;;;2048383;28;20491;-85
2021/05/05 00:45:04;;;;;;;1.67;0.60;;;7.30;84.40;;;;;;2073769;28;20128;-85
2021/05/05 00:46:05;;;;;;;3.25;1.00;;;7.30;84.40;;;;;;2079946;28;20033;-86
2021/05/05 00:47:07;;;;;;;3.38;0.80;;;7.30;84.40;;;;;;2081340;28;20025;-85
2021/05/05 00:48:08;;;;;;;3.25;0.65;;;7.30;84.40;;;;;;2081203;28;20025;-85
2021/05/05 00:49:09;;;;;;;1.73;0.70;;;7.30;84.40;;;;;;2071857;28;20092;-86
2021/05/05 00:50:13;;;;;;;1.67;0.50;;;7.30;84.40;;;;;;2064915;28;20431;-86
2021/05/05 00:51:14;;;;;;;3.53;0.90;;;7.30;84.40;;;;;;2071570;28;20112;-85
2021/05/05 00:52:14;;;;;;;2.65;0.70;;;7.30;84.40;;;;;;2088958;28;20507;-85
2021/05/05 00:53:15;;;;;;;4.32;0.70;;;7.30;84.40;;;;;;2075803;28;20049;-85
2021/05/05 00:54:16;;;;;;;2.83;0.70;;;7.30;84.40;;;;;;2053100;28;20441;-85
2021/05/05 00:55:16;;;;;;;4.38;1.05;;;7.30;84.40;;;;;;2046002;29;20027;-85
2021/05/05 00:56:18;;;;;;;3.45;0.90;;;7.30;84.40;;;;;;2060214;28;20081;-86
2021/05/05 00:57:19;;;;;;;3.92;0.80;;;7.30;84.90;;;;;;2075456;28;20047;-86
2021/05/05 00:58:20;;;;;;;1.83;0.60;;;7.30;84.40;;;;;;2072712;28;20069;-85
2021/05/05 00:59:23;;;;;;;4.32;0.90;;;7.20;84.30;;;;;;2091846;28;20040;-85
2021/05/05 01:00:24;;;;;;;3.30;0.90;;;7.20;84.40;;;;;;2086803;28;20162;-86
2021/05/05 01:01:25;;;;;;;3.55;0.90;;;7.20;84.40;;;;;;2064143;28;20034;-86
2021/05/05 01:02:25;;;;;;;3.88;1.10;;;7.20;84.50;;;;;;2069441;28;20489;-86
2021/05/05 01:03:26;;;;;;;3.97;0.85;;;7.20;84.40;;;;;;2055407;28;20043;-86
2021/05/05 01:04:27;;;;;;;3.97;0.90;;;7.20;84.50;;;;;;2061252;28;20041;-86
2021/05/05 01:05:27;;;;;;;2.20;0.70;;;7.20;84.40;;;;;;2065504;28;20030;-85
2021/05/05 01:06:28;;;;;;;3.63;0.90;;;7.20;84.50;;;;;;2047819;28;20039;-85
2021/05/05 01:07:29;;;;;;;2.38;0.90;;;7.20;84.40;;;;;;2069715;28;20119;-85
2021/05/05 01:08:31;;;;;;;3.30;0.90;;;7.20;84.50;;;;;;2071993;28;20120;-85
2021/05/05 01:09:32;;;;;;;2.85;1.00;;;7.20;84.40;;;;;;2065845;28;20030;-86
2021/05/05 01:10:33;;;;;;;3.38;1.13;;;7.20;84.40;;;;;;2078306;28;20025;-86
2021/05/05 01:11:33;;;;;;;2.83;0.70;;;7.20;84.40;;;;;;2088323;28;20076;-86
2021/05/05 01:12:34;;;;;;;2.70;1.00;;;7.20;84.40;;;;;;2084494;28;20124;-85
2021/05/05 01:13:35;;;;;;;2.28;0.75;;;7.20;84.40;;;;;;2079957;28;20042;-86
2021/05/05 01:14:35;;;;;;;2.05;0.80;;;7.20;84.40;;;;;;2068440;28;20452;-85
2021/05/05 01:15:36;;;;;;;2.25;0.95;;;7.20;84.30;;;;;;2061310;28;20042;-85
2021/05/05 01:16:37;;;;;;;3.58;0.82;;;7.20;84.30;;;;;;2075911;28;20028;-85
2021/05/05 01:17:37;;;;;;;2.45;1.00;;;7.20;84.90;;;;;;2055797;28;20039;-86
2021/05/05 01:18:38;;;;;;;3.83;1.10;;;7.20;84.30;;;;;;2070063;28;20485;-86
2021/05/05 01:19:39;;;;;;;4.05;1.10;;;7.20;84.20;;;;;;2080464;28;20033;-86
2021/05/05 01:20:41;;;;;;;2.97;0.88;;;7.20;84.20;;;;;;2071454;28;20053;-86
2021/05/05 01:21:41;;;;;;;3.60;1.15;;;7.20;84.20;;;;;;2077419;28;20084;-86
2021/05/05 01:22:42;;;;;;;4.03;1.13;;;7.20;84.20;;;;;;2079953;28;20067;-86
2021/05/05 01:23:43;;;;;;;3.83;1.25;;;7.20;84.10;;;;;;2071969;28;20030;-85
2021/05/05 01:24:43;;;;;;;3.38;1.20;;;7.20;84.10;;;;;;2064587;28;20142;-86
2021/05/05 01:25:44;;;;;;;4.43;1.20;;;7.20;84.10;;;;;;2068969;28;20564;-86
2021/05/05 01:26:44;;;;;;;4.15;1.20;;;7.20;84.10;;;;;;2076390;28;20029;-85
2021/05/05 01:27:45;;;;;;;3.88;1.20;;;7.20;84.10;;;;;;2069085;28;20488;-85
2021/05/05 01:28:47;;;;;;;2.15;1.00;;;7.20;84.10;;;;;;2076334;28;20043;-85
2021/05/05 01:29:49;;;;;;;3.47;1.30;;;7.20;84.10;;;;;;2079762;28;20120;-84
2021/05/05 01:30:50;;;;;;;5.35;1.17;;;7.20;84.10;;;;;;2077890;28;20021;-84
2021/05/05 01:31:51;;;;;;;3.65;1.20;;;7.20;84.10;;;;;;2084816;28;20059;-85
2021/05/05 01:32:52;;;;;;;2.70;1.00;;;7.20;84.10;;;;;;2094187;28;20009;-85
2021/05/05 01:33:53;;;;;;;4.10;1.30;;;7.20;84.10;;;;;;2089167;28;20510;-85
2021/05/05 01:34:54;;;;;;;4.45;1.35;;;7.20;84.20;;;;;;2091662;28;20025;-84
2021/05/05 01:35:55;;;;;;;3.75;1.10;;;7.20;84.20;;;;;;2074860;28;20029;-84
2021/05/05 01:36:56;;;;;;;4.25;1.20;;;7.20;84.20;;;;;;2076386;28;20578;-84
2021/05/05 01:37:57;;;;;;;2.97;0.82;;;7.20;84.30;;;;;;2082450;28;20576;-84
2021/05/05 01:38:57;;;;;;;3.72;1.00;;;7.20;84.30;;;;;;2078194;28;20079;-84
2021/05/05 01:39:58;;;;;;;5.60;1.20;;;7.10;84.30;;;;;;2087958;28;20121;-84
2021/05/05 01:40:59;;;;;;;5.32;1.40;;;7.10;84.50;;;;;;2088334;28;20033;-83
2021/05/05 01:42:00;;;;;;;5.22;1.05;;;7.00;84.50;;;;;;2078693;28;20021;-85
2021/05/05 01:43:04;;;;;;;3.83;0.80;;;7.00;84.70;;;;;;2072384;28;20045;-85
2021/05/05 01:44:05;;;;;;;2.92;0.82;;;6.90;84.80;;;;;;2080833;28;20095;-85
2021/05/05 01:45:07;;;;;;;3.05;0.85;;;6.80;85.00;;;;;;2080472;28;20507;-85
2021/05/05 01:46:08;;;;;;;4.22;0.70;;;6.80;85.20;;;;;;2078987;28;20053;-85
2021/05/05 01:47:12;;;;;;;3.03;0.80;;;6.70;85.30;;;;;;2072512;28;20025;-84
2021/05/05 01:48:15;;;;;;;1.73;0.80;;;6.60;85.50;;;;;;2083468;28;20033;-84
2021/05/05 01:49:23;;;;;;;2.25;0.73;;;6.60;85.70;;;;;;2083396;28;20025;-84
2021/05/05 01:50:25;;;;;;;4.70;0.88;;;6.60;85.80;;;;;;2080589;28;20390;-84
2021/05/05 01:51:26;;;;;;;2.75;0.80;;;6.60;86.00;;;;;;2091096;28;20110;-84
2021/05/05 01:52:26;;;;;;;2.42;0.80;;;6.60;86.00;;;;;;2071149;28;20454;-84
2021/05/05 01:53:27;;;;;;;2.42;0.63;;;6.60;86.10;;;;;;2051206;28;20037;-83
2021/05/05 01:54:28;;;;;;;2.53;0.70;;;6.60;86.20;;;;;;2060704;28;20030;-84
2021/05/05 01:55:28;;;;;;;3.80;0.75;;;6.50;86.20;;;;;;2069685;28;20485;-83
2021/05/05 01:56:29;;;;;;;2.58;0.80;;;6.50;86.20;;;;;;2067633;28;20447;-84
2021/05/05 01:57:33;;;;;;;3.28;0.90;;;6.50;86.40;;;;;;2073304;28;20045;-85
2021/05/05 01:58:35;;;;;;;2.90;0.70;;;6.50;86.40;;;;;;2078095;28;20037;-84
2021/05/05 01:59:36;;;;;;;2.75;0.80;;;6.50;86.40;;;;;;2079347;28;20049;-85
2021/05/05 02:00:37;;;;;;;3.47;0.77;;;6.50;86.50;;;;;;2084605;28;20029;-85
2021/05/05 02:01:38;;;;;;;3.60;0.80;;;6.40;86.50;;;;;;2092975;28;20138;-84
2021/05/05 02:02:38;;;;;;;2.67;0.60;;;6.40;86.50;;;;;;2072706;28;20518;-85
2021/05/05 02:03:39;;;;;;;5.78;0.93;;;6.40;86.60;;;;;;2078035;28;20057;-85
2021/05/05 02:04:40;;;;;;;1.70;0.70;;;6.40;86.60;;;;;;2080170;28;20080;-85
2021/05/05 02:05:40;;;;;;;3.58;1.00;;;6.40;86.70;;;;;;2062503;28;20026;-84
2021/05/05 02:06:41;;;;;;;3.83;0.80;;;6.40;86.70;;;;;;2070835;28;20482;-85
2021/05/05 02:07:42;;;;;;;3.20;0.80;;;6.40;86.80;;;;;;2080029;28;20057;-85
2021/05/05 02:08:43;;;;;;;2.60;0.70;;;6.30;86.70;;;;;;2080459;28;20041;-84
2021/05/05 02:09:43;;;;;;;3.60;0.60;;;6.30;86.80;;;;;;2073268;28;20168;-85
2021/05/05 02:10:46;;;;;;;2.63;0.68;;;6.30;86.80;;;;;;2073654;28;20223;-84
2021/05/05 02:11:46;;;;;;;1.70;0.60;;;6.30;86.80;;;;;;2075547;28;20026;-85
2021/05/05 02:12:48;;;;;;;2.80;0.70;;;6.30;87.00;;;;;;2081585;28;20029;-85
2021/05/05 02:13:49;;;;;;;3.50;0.85;;;6.30;87.00;;;;;;2071286;28;20030;-85
2021/05/05 02:14:50;;;;;;;2.90;1.10;;;6.30;87.20;;;;;;2077850;28;20060;-85
2021/05/05 02:15:50;;;;;;;3.33;0.82;;;6.30;87.00;;;;;;2088504;28;20392;-85
2021/05/05 02:16:59;;;;;;;2.90;0.70;;;6.30;87.00;;;;;;2085681;28;20072;-84
2021/05/05 02:18:00;;;;;;;3.80;0.80;;;6.30;87.10;;;;;;2080267;28;20126;-84
2021/05/05 02:19:00;;;;;;;3.35;0.80;;;6.30;87.10;;;;;;2066632;28;20488;-84
2021/05/05 02:20:01;;;;;;;2.45;0.70;;;6.30;87.20;;;;;;2072892;28;20173;-84
2021/05/05 02:21:01;;;;;;;3.75;0.80;;;6.30;87.20;;;;;;2071292;28;20029;-84
2021/05/05 02:22:02;;;;;;;2.42;0.70;;;6.30;87.80;;;;;;2072714;28;20026;-84
2021/05/05 02:23:03;;;;;;;3.03;0.70;;;6.20;87.90;;;;;;2077510;28;20026;-84
2021/05/05 02:24:05;;;;;;;4.45;0.90;;;6.30;87.30;;;;;;2072456;28;20037;-84
2021/05/05 02:25:07;;;;;;;3.50;0.88;;;6.30;87.30;;;;;;2073088;28;20666;-84
2021/05/05 02:26:08;;;;;;;3.85;0.80;;;6.20;87.30;;;;;;2090242;28;20021;-84
2021/05/05 02:27:09;;;;;;;3.60;0.90;;;6.30;87.40;;;;;;2088004;28;20025;-84
2021/05/05 02:28:10;;;;;;;3.70;0.90;;;6.20;87.30;;;;;;2073520;28;20053;-84
2021/05/05 02:29:10;;;;;;;3.38;0.70;;;6.20;87.30;;;;;;2086398;28;20049;-84
2021/05/05 02:30:13;;;;;;;3.47;0.85;;;6.20;87.30;;;;;;2082068;28;20072;-85
2021/05/05 02:31:13;;;;;;;4.93;0.80;;;6.20;87.40;;;;;;2073290;28;20412;-85
2021/05/05 02:32:19;;;;;;;4.78;1.00;;;6.20;87.40;;;;;;2088565;28;20054;-85
2021/05/05 02:33:20;;;;;;;2.97;0.90;;;6.20;87.40;;;;;;2076246;28;20112;-84
2021/05/05 02:34:21;;;;;;;3.67;0.68;;;6.20;87.40;;;;;;2079982;28;20033;-84
2021/05/05 02:35:22;;;;;;;2.28;0.60;;;6.20;87.40;;;;;;2074838;28;20477;-84
2021/05/05 02:36:22;;;;;;;3.80;0.80;;;6.20;87.50;;;;;;2077028;28;20044;-84
2021/05/05 02:37:23;;;;;;;3.85;1.30;;;6.20;87.50;;;;;;2072603;28;20062;-83
2021/05/05 02:38:24;;;;;;;2.30;0.60;;;6.20;87.60;;;;;;2080060;28;21203;-84
2021/05/05 02:39:25;;;;;;;3.70;0.80;;;6.20;87.60;;;;;;2079095;28;20388;-84
2021/05/05 02:40:25;;;;;;;3.75;0.52;;;6.20;87.60;;;;;;2076618;28;20030;-84
2021/05/05 02:41:26;;;;;;;4.78;0.85;;;6.20;87.60;;;;;;2075862;28;20026;-83
2021/05/05 02:42:27;;;;;;;4.80;0.82;;;6.20;87.60;;;;;;2085324;28;20051;-84
2021/05/05 02:43:27;;;;;;;3.42;0.60;;;6.20;87.70;;;;;;2091298;28;20025;-83
2021/05/05 02:44:28;;;;;;;3.17;0.80;;;6.20;87.70;;;;;;2080739;28;20077;-84
2021/05/05 02:45:29;;;;;;;2.70;0.80;;;6.20;87.80;;;;;;2086726;28;20032;-84
2021/05/05 02:46:30;;;;;;;4.03;0.80;;;6.20;87.70;;;;;;2077398;28;20100;-83
2021/05/05 02:47:30;;;;;;;6.28;0.80;;;6.20;87.80;;;;;;2075320;28;20511;-84
2021/05/05 02:48:31;;;;;;;2.67;0.60;;;6.20;87.80;;;;;;2073084;28;20439;-84
2021/05/05 02:49:33;;;;;;;4.03;0.88;;;6.20;87.80;;;;;;2073032;28;20022;-85
2021/05/05 02:50:34;;;;;;;3.25;0.60;;;6.20;87.80;;;;;;2073464;28;20038;-84
2021/05/05 02:51:35;;;;;;;2.60;0.70;;;6.20;87.80;;;;;;2078813;28;20030;-84
2021/05/05 02:52:36;;;;;;;2.63;0.68;;;6.20;87.90;;;;;;2083243;28;20030;-85
2021/05/05 02:53:36;;;;;;;4.10;0.70;;;6.20;87.90;;;;;;2079866;28;20049;-84
2021/05/05 02:54:37;;;;;;;2.53;0.70;;;6.20;87.90;;;;;;2070845;28;20056;-85
2021/05/05 02:55:38;;;;;;;3.65;0.88;;;6.20;87.90;;;;;;2075840;28;20042;-85
2021/05/05 02:56:39;;;;;;;4.47;0.93;;;6.20;88.00;;;;;;2081032;28;20041;-85
2021/05/05 02:57:39;;;;;;;3.45;0.80;;;6.20;87.90;;;;;;2073502;28;20034;-85
2021/05/05 02:58:40;;;;;;;2.90;0.80;;;6.20;87.90;;;;;;2071465;28;20033;-85
2021/05/05 02:59:40;;;;;;;3.92;0.93;;;6.20;87.90;;;;;;2072289;28;20417;-85
2021/05/05 03:00:41;;;;;;;3.13;0.90;;;6.20;87.90;;;;;;2062211;28;20033;-85
2021/05/05 03:01:42;;;;;;;4.20;0.90;;;6.20;88.00;;;;;;2056994;28;20473;-85
2021/05/05 03:02:42;;;;;;;3.50;1.33;;;6.20;88.00;;;;;;2074216;28;20116;-84
2021/05/05 03:03:43;;;;;;;2.55;0.85;;;6.30;88.10;;;;;;2086201;28;20496;-84
2021/05/05 03:04:43;;;;;;;2.25;0.70;;;6.30;88.10;;;;;;2073145;28;20108;-84
2021/05/05 03:05:44;;;;;;;3.50;0.88;;;6.30;88.10;;;;;;2067664;28;20501;-84
2021/05/05 03:06:45;;;;;;;3.42;0.90;;;6.30;88.10;;;;;;2070817;28;20030;-84
2021/05/05 03:07:45;;;;;;;5.25;1.10;;;6.30;88.10;;;;;;2076686;28;20080;-84
2021/05/05 03:08:46;;;;;;;2.20;0.73;;;6.30;88.10;;;;;;2072430;28;20030;-84
2021/05/05 03:09:47;;;;;;;5.85;1.38;;;6.30;88.10;;;;;;2072903;28;20049;-84
2021/05/05 03:10:48;;;;;;;4.97;0.85;;;6.30;88.10;;;;;;2081559;28;20025;-83
2021/05/05 03:11:49;;;;;;;3.90;1.02;;;6.30;88.10;;;;;;2086606;28;20061;-82
2021/05/05 03:12:49;;;;;;;4.78;1.00;;;6.30;88.10;;;;;;2076305;28;20403;-84
2021/05/05 03:13:50;;;;;;;4.82;0.80;;;6.30;88.10;;;;;;2075513;28;20084;-83
2021/05/05 03:14:51;;;;;;;3.55;1.20;;;6.30;88.10;;;;;;2069927;28;20120;-84
2021/05/05 03:15:52;;;;;;;6.18;1.20;;;6.30;88.10;;;;;;2066213;28;20077;-83
2021/05/05 03:16:54;;;;;;;3.33;0.98;;;6.30;88.10;;;;;;2073777;28;20125;-84
2021/05/05 03:17:54;;;;;;;3.28;0.82;;;6.30;88.20;;;;;;2079116;28;20025;-84
2021/05/05 03:18:55;;;;;;;3.33;0.88;;;6.30;88.20;;;;;;2072627;28;20030;-83
2021/05/05 03:19:56;;;;;;;5.13;1.00;;;6.30;88.20;;;;;;2064686;28;20026;-84
2021/05/05 03:20:58;;;;;;;3.10;0.85;;;6.30;88.20;;;;;;2088269;28;20110;-84
2021/05/05 03:22:00;;;;;;;4.85;1.00;;;6.30;88.30;;;;;;2088950;28;20025;-84
2021/05/05 03:23:00;;;;;;;6.05;1.00;;;6.30;88.40;;;;;;2080857;28;20034;-83
2021/05/05 03:24:01;;;;;;;3.17;1.00;;;6.30;88.30;;;;;;2080026;28;20415;-83
2021/05/05 03:25:04;;;;;;;5.07;1.50;;;6.30;88.40;;;;;;2080731;28;20036;-84
2021/05/05 03:26:04;;;;;;;5.18;1.20;;;6.30;88.40;;;;;;2081117;28;20440;-84
2021/05/05 03:27:05;;;;;;;4.43;1.00;;;6.30;88.40;;;;;;2080902;28;20057;-84
2021/05/05 03:28:07;;;;;;;3.65;1.00;;;6.30;88.40;;;;;;2088354;28;20025;-84
2021/05/05 03:29:07;;;;;;;2.50;0.70;;;6.30;88.40;;;;;;2077812;28;20269;-84
2021/05/05 03:30:09;;;;;;;3.33;1.05;;;6.30;88.40;;;;;;2055169;28;20162;-84
2021/05/05 03:31:10;;;;;;;3.58;1.10;;;6.30;88.40;;;;;;2064450;28;20042;-84
2021/05/05 03:32:10;;;;;;;2.92;0.90;;;6.30;88.50;;;;;;2064885;28;20113;-85
2021/05/05 03:33:11;;;;;;;6.13;0.95;;;6.30;88.50;;;;;;2083680;28;20068;-85
2021/05/05 03:34:12;;;;;;;3.45;0.90;;;6.40;88.50;;;;;;2088436;28;20144;-84
2021/05/05 03:35:13;;;;;;;5.32;1.15;;;6.30;88.50;;;;;;2077500;28;20060;-84
2021/05/05 03:36:14;;;;;;;4.72;1.50;;;6.30;88.50;;;;;;2082739;28;20072;-84
2021/05/05 03:37:15;;;;;;;4.95;1.15;;;6.30;88.50;;;;;;2076345;28;20459;-85
2021/05/05 03:38:15;;;;;;;2.85;1.10;;;6.40;88.60;;;;;;2062092;28;20069;-84
2021/05/05 03:39:16;;;;;;;4.65;1.10;;;6.30;88.60;;;;;;2069886;28;20114;-85
2021/05/05 03:40:17;;;;;;;3.85;1.17;;;6.30;89.20;;;;;;2080918;28;20037;-85
2021/05/05 03:41:17;;;;;;;2.63;0.93;;;6.30;88.60;;;;;;2068996;28;20029;-84
2021/05/05 03:42:18;;;;;;;3.65;1.00;;;6.30;88.70;;;;;;2066339;28;20508;-85
2021/05/05 03:43:19;;;;;;;4.82;1.30;;;6.30;88.70;;;;;;2072651;28;20022;-85
2021/05/05 03:44:19;;;;;;;3.88;1.35;;;6.30;88.70;;;;;;2086996;28;20432;-85
2021/05/05 03:45:20;;;;;;;3.92;1.65;;;6.30;88.80;;;;;;2089089;28;20622;-84
2021/05/05 03:46:21;;;;;;;3.55;1.25;;;6.30;88.80;;;;;;2084857;28;20040;-85
2021/05/05 03:47:22;;;;;;;4.82;1.30;;;6.30;88.80;;;;;;2066982;28;20027;-85
2021/05/05 03:48:23;;;;;;;2.85;1.27;;;6.30;88.90;;;;;;2071480;28;20038;-84
2021/05/05 03:49:24;;;;;;;5.00;1.35;;;6.20;88.80;;;;;;2079315;28;20021;-85
2021/05/05 03:50:26;;;;;;;5.90;1.60;;;6.30;89.00;;;;;;2081798;28;20095;-84
2021/05/05 03:51:26;;;;;;;4.43;1.30;;;6.20;89.00;;;;;;2085564;28;20026;-84
2021/05/05 03:52:27;;;;;;;4.20;1.52;;;6.20;89.00;;;;;;2073974;28;20025;-84
2021/05/05 03:53:28;;;;;;;4.80;1.50;;;6.20;89.10;;;;;;2072825;28;20065;-85
2021/05/05 03:54:28;;;;;;;4.93;1.38;;;6.20;89.20;;;;;;2073219;28;20530;-84
2021/05/05 03:55:29;;;;;;;3.85;1.33;;;6.20;89.20;;;;;;2062105;28;20505;-84
2021/05/05 03:56:30;;;;;;;3.35;1.23;;;6.20;89.20;;;;;;2072526;28;20103;-85
2021/05/05 03:57:31;;;;;;;4.75;1.40;;;6.10;89.20;;;;;;2090353;28;20033;-85
2021/05/05 03:58:32;;;;;;;4.75;1.52;;;6.10;89.20;;;;;;2064575;28;20041;-85
2021/05/05 03:59:33;;;;;;;3.47;1.27;;;6.10;89.20;;;;;;2075674;28;20032;-84
2021/05/05 04:00:34;;;;;;;4.47;1.85;;;6.10;89.20;;;;;;2074247;28;20057;-84
2021/05/05 04:01:34;;;;;;;3.78;1.23;;;6.10;89.20;;;;;;2066218;28;20532;-85
2021/05/05 04:02:35;;;;;;;4.93;1.60;;;6.10;89.80;;;;;;2071383;28;20040;-85
2021/05/05 04:03:36;;;;;;;5.95;1.60;;;6.10;89.20;;;;;;2069993;28;20125;-84
2021/05/05 04:04:36;;;;;;;5.28;1.55;;;6.10;89.30;;;;;;2072410;28;20121;-84
2021/05/05 04:05:37;;;;;;;5.82;1.60;;;6.10;89.20;;;;;;2073839;28;20041;-84
2021/05/05 04:06:38;;;;;;;3.53;1.52;;;6.10;89.30;;;;;;2095447;28;20636;-84
2021/05/05 04:07:39;;;;;;;3.30;1.48;;;6.10;89.30;;;;;;2093950;28;20469;-84
2021/05/05 04:08:39;;;;;;;3.97;1.45;;;6.10;89.30;;;;;;2077528;28;20040;-84
2021/05/05 04:09:41;;;;;;;3.85;1.73;;;6.10;89.30;;;;;;2075655;28;20030;-84
2021/05/05 04:10:42;;;;;;;4.25;1.60;;;6.10;89.30;;;;;;2085415;28;20025;-85
2021/05/05 04:11:43;;;;;;;3.33;1.35;;;6.10;89.20;;;;;;2092151;28;20028;-83
2021/05/05 04:12:43;;;;;;;3.60;1.63;;;6.10;89.20;;;;;;2086966;28;20107;-84
2021/05/05 04:13:44;;;;;;;5.03;1.70;;;6.10;89.20;;;;;;2081559;28;20077;-84
2021/05/05 04:14:45;;;;;;;4.88;1.40;;;6.10;89.20;;;;;;2086451;28;20029;-84
2021/05/05 04:15:45;;;;;;;6.03;1.77;;;6.20;89.30;;;;;;2094098;28;20032;-84
2021/05/05 04:16:46;;;;;;;5.63;1.50;;;6.20;89.20;;;;;;2085303;28;20121;-84
2021/05/05 04:17:47;;;;;;;4.07;1.50;;;6.10;89.20;;;;;;2079575;28;20017;-83
2021/05/05 04:18:48;;;;;;;5.13;1.75;;;6.20;89.20;;;;;;2076422;28;20025;-84
2021/05/05 04:19:51;;;;;;;4.30;1.23;;;6.20;89.20;;;;;;2077811;28;20025;-84
2021/05/05 04:20:53;;;;;;;6.40;1.60;;;6.20;89.10;;;;;;2069589;28;20042;-84
2021/05/05 04:21:54;;;;;;;4.47;1.23;;;6.20;89.10;;;;;;2075734;28;20049;-84
2021/05/05 04:22:54;;;;;;;5.80;1.40;;;6.10;89.00;;;;;;2077087;28;20064;-84
2021/05/05 04:23:55;;;;;;;4.25;1.58;;;6.20;89.10;;;;;;2059610;28;20480;-83
2021/05/05 04:24:56;;;;;;;4.68;1.30;;;6.10;89.00;;;;;;2069749;28;20492;-84
2021/05/05 04:25:56;;;;;;;5.20;1.63;;;6.10;89.00;;;;;;2065405;28;20357;-84
2021/05/05 04:26:57;;;;;;;5.65;1.20;;;6.10;89.00;;;;;;2068555;28;20389;-84
2021/05/05 04:27:58;;;;;;;3.53;1.10;;;6.10;89.00;;;;;;2071868;28;20566;-83
2021/05/05 04:28:59;;;;;;;4.65;1.33;;;6.10;89.00;;;;;;2070768;28;20049;-84
2021/05/05 04:30:00;;;;;;;4.90;1.20;;;6.10;89.00;;;;;;2060377;28;20023;-84
2021/05/05 04:31:00;;;;;;;4.63;1.40;;;6.10;89.00;;;;;;2078615;28;20543;-84
2021/05/05 04:32:02;;;;;;;3.53;1.30;;;6.10;89.00;;;;;;2077109;28;20030;-84
2021/05/05 04:33:02;;;;;;;3.80;1.23;;;6.10;89.10;;;;;;2079592;28;20021;-84
2021/05/05 04:34:03;;;;;;;3.90;1.17;;;6.10;89.10;;;;;;2082070;28;20072;-84
2021/05/05 04:35:04;;;;;;;4.05;1.13;;;6.10;89.10;;;;;;2085849;28;20041;-84
2021/05/05 04:36:05;;;;;;;3.58;1.27;;;6.10;89.10;;;;;;2072031;28;20040;-84
2021/05/05 04:37:06;;;;;;;5.15;1.30;;;6.10;89.10;;;;;;2062949;28;20049;-84
2021/05/05 04:38:07;;;;;;;5.22;1.15;;;6.10;89.00;;;;;;2063707;28;20030;-84
2021/05/05 04:39:08;;;;;;;8.00;1.67;;;6.10;89.00;;;;;;2064253;28;20473;-84
2021/05/05 04:40:09;;;;;;;3.67;1.10;;;6.10;89.00;;;;;;2071348;28;20033;-83
2021/05/05 04:41:10;;;;;;;6.40;1.73;;;6.10;88.90;;;;;;2073011;28;20022;-84
2021/05/05 04:42:11;;;;;;;5.18;1.13;;;6.20;89.50;;;;;;2079953;28;20028;-84
2021/05/05 04:43:12;;;;;;;6.22;1.42;;;6.20;88.80;;;;;;2057670;28;20109;-84
2021/05/05 04:44:13;;;;;;;5.55;1.15;;;6.20;88.80;;;;;;2050207;28;20086;-84
2021/05/05 04:45:13;;;;;;;4.00;1.38;;;6.20;88.70;;;;;;2071950;28;20026;-84
2021/05/05 04:46:14;;;;;;;4.32;1.10;;;6.20;89.30;;;;;;2072214;28;20480;-83
2021/05/05 04:47:15;;;;;;;4.20;1.00;;;6.20;88.70;;;;;;2083243;28;20029;-84
2021/05/05 04:48:17;;;;;;;2.65;1.00;;;6.20;88.70;;;;;;2075126;28;20487;-84
2021/05/05 04:49:17;;;;;;;3.65;0.90;;;6.20;88.70;;;;;;2079672;28;20037;-84
2021/05/05 04:50:18;;;;;;;6.30;1.17;;;6.30;88.70;;;;;;2085234;28;20028;-83
2021/05/05 04:51:19;;;;;;;5.00;1.48;;;6.30;88.70;;;;;;2080373;28;20043;-84
2021/05/05 04:52:19;;;;;;;4.63;1.30;;;6.30;88.70;;;;;;2079902;28;20469;-83
2021/05/05 04:53:20;;;;;;;3.65;1.17;;;6.30;88.70;;;;;;2079312;28;20037;-83
2021/05/05 04:54:21;;;;;;;4.28;1.10;;;6.30;88.70;;;;;;2086638;28;20399;-84
2021/05/05 04:55:22;;;;;;;3.05;1.20;;;6.30;88.70;;;;;;2080093;28;20117;-84
2021/05/05 04:56:23;;;;;;;4.22;1.00;;;6.40;88.70;;;;;;2072044;28;20132;-84
2021/05/05 04:57:23;;;;;;;3.67;1.05;;;6.30;88.60;;;;;;2078668;28;20059;-84
2021/05/05 04:58:24;;;;;;;3.90;1.13;;;6.40;88.70;;;;;;2075729;28;20036;-84
2021/05/05 04:59:25;;;;;;;3.63;1.60;;;6.40;88.70;;;;;;2085912;28;20025;-83
2021/05/05 05:00:26;;;;;;;4.57;1.30;;;6.40;88.70;;;;;;2079841;28;20029;-84
2021/05/05 05:01:27;;;;;;;5.15;1.25;;;6.40;88.60;;;;;;2075648;28;20395;-83
2021/05/05 05:02:27;;;;;;;5.25;1.40;;;6.40;88.60;;;;;;2078676;28;20139;-83
2021/05/05 05:03:28;;;;;;;4.05;1.23;;;6.40;88.60;;;;;;2084040;28;20534;-83
2021/05/05 05:04:29;;;;;;;3.67;1.27;;;6.40;88.60;;;;;;2065978;28;20033;-84
2021/05/05 05:05:29;;;;;;;4.00;1.40;;;6.40;88.60;;;;;;2073596;28;20044;-84
2021/05/05 05:06:30;;;;;;;3.22;1.08;;;6.40;88.60;;;;;;2074744;28;20068;-84
2021/05/05 05:07:35;;;;;;;4.50;1.40;;;6.40;88.70;;;;;;2086059;28;20039;-83
2021/05/05 05:08:36;;;;;;;5.00;1.50;;;6.40;88.70;;;;;;2077134;28;20070;-83
2021/05/05 05:09:36;;;;;;;5.07;1.50;;;6.40;88.60;;;;;;2069857;28;20030;-83
2021/05/05 05:10:37;;;;;;;3.65;1.23;;;6.40;88.60;;;;;;2070311;28;20060;-83
2021/05/05 05:11:37;;;;;;;5.63;1.52;;;6.40;88.50;;;;;;2057566;28;20394;-84
2021/05/05 05:12:38;;;;;;;5.45;1.60;;;6.30;88.50;;;;;;2056248;28;20143;-85
2021/05/05 05:13:39;;;;;;;3.28;1.30;;;6.30;88.50;;;;;;2055632;28;20038;-84
2021/05/05 05:14:40;;;;;;;3.83;1.45;;;6.30;88.50;;;;;;2071739;28;20436;-84
2021/05/05 05:15:41;;;;;;;4.35;1.45;;;6.30;88.50;;;;;;2076896;28;20026;-84
2021/05/05 05:16:41;;;;;;;3.95;1.50;;;6.30;88.50;;;;;;2063379;28;20022;-84
2021/05/05 05:17:42;;;;;;;4.45;1.40;;;6.30;88.50;;;;;;2062138;28;20054;-84
2021/05/05 05:18:43;;;;;;;3.92;1.42;;;6.30;88.50;;;;;;2060282;28;20022;-83
2021/05/05 05:19:43;;;;;;;2.53;1.00;;;6.30;88.60;;;;;;2070682;28;20113;-84
2021/05/05 05:20:44;;;;;;;3.38;1.10;;;6.30;88.60;;;;;;2071174;28;20108;-84
2021/05/05 05:21:45;;;;;;;3.42;1.40;;;6.30;88.60;;;;;;2079682;28;20025;-83